createdAt,value
2022-09-02T00:01:31.435Z,8.37
2022-09-02T00:04:01.108Z,8.27
2022-09-02T00:06:30.749Z,8.53
2022-09-02T00:08:59.675Z,8.83
2022-09-02T00:11:29.523Z,8.47
2022-09-02T00:13:57.836Z,8.27
2022-09-02T00:16:27.433Z,8.53
2022-09-02T00:18:56.410Z,9.30
2022-09-02T00:21:25.532Z,9.50
2022-09-02T00:23:53.946Z,9.43
2022-09-02T00:26:22.091Z,9.57
2022-09-02T00:28:56.011Z,10.30
2022-09-02T00:31:24.902Z,10.47
2022-09-02T00:33:54.471Z,11.20
2022-09-02T00:36:22.802Z,12.20
2022-09-02T00:38:50.958Z,12.83
2022-09-02T00:41:22.188Z,13.43
2022-09-02T00:43:53.529Z,14.67
2022-09-02T00:46:24.856Z,15.60
2022-09-02T00:48:59.485Z,15.47
2022-09-02T00:51:30.094Z,16.27
2022-09-02T00:53:59.030Z,18.23
2022-09-02T00:56:29.910Z,18.53
2022-09-02T00:58:58.642Z,18.20
2022-09-02T01:01:27.226Z,18.83
2022-09-02T01:03:56.963Z,21.40
2022-09-02T01:06:28.562Z,22.33
2022-09-02T01:09:01.039Z,23.03
2022-09-02T01:11:32.845Z,23.30
2022-09-02T01:14:01.737Z,22.47
2022-09-02T01:16:34.678Z,23.30
2022-09-02T01:19:10.270Z,23.20
2022-09-02T01:21:39.502Z,23.53
2022-09-02T01:24:09.119Z,23.13
2022-09-02T01:26:37.010Z,22.23
2022-09-02T01:29:04.928Z,23.90
2022-09-02T01:31:32.929Z,24.00
2022-09-02T01:34:01.743Z,24.03
2022-09-02T01:36:29.655Z,23.67
2022-09-02T01:38:58.636Z,23.60
2022-09-02T01:41:28.325Z,23.80
2022-09-02T01:43:57.118Z,24.67
2022-09-02T01:46:25.063Z,24.33
2022-09-02T01:48:53.489Z,23.53
2022-09-02T01:51:22.256Z,23.67
2022-09-02T01:53:51.134Z,23.80
2022-09-02T01:56:19.116Z,24.17
2022-09-02T01:58:49.001Z,23.60
2022-09-02T02:01:17.013Z,23.47
2022-09-02T02:03:47.039Z,23.40
2022-09-02T02:06:18.404Z,24.30
2022-09-02T02:08:47.300Z,22.23
2022-09-02T02:11:20.919Z,22.33
2022-09-02T02:13:53.444Z,22.27
2022-09-02T02:16:22.658Z,22.53
2022-09-02T02:18:50.664Z,23.53
2022-09-02T02:21:18.610Z,23.47
2022-09-02T02:23:48.579Z,23.00
2022-09-02T02:26:16.608Z,23.70
2022-09-02T02:28:44.739Z,24.27
2022-09-02T02:31:14.107Z,23.00
2022-09-02T02:33:42.164Z,23.40
2022-09-02T02:36:10.606Z,24.23
2022-09-02T02:38:39.817Z,25.37
2022-09-02T02:41:08.273Z,24.40
2022-09-02T02:43:37.032Z,24.40
2022-09-02T02:46:05.555Z,24.83
2022-09-02T02:48:36.811Z,23.87
2022-09-02T02:51:05.128Z,22.53
2022-09-02T02:53:34.567Z,24.03
2022-09-02T02:56:03.419Z,23.03
2022-09-02T02:58:32.730Z,23.87
2022-09-02T03:01:01.818Z,24.00
2022-09-02T03:03:31.457Z,23.37
2022-09-02T03:06:02.056Z,22.07
2022-09-02T03:08:31.031Z,23.63
2022-09-02T03:10:59.726Z,22.60
2022-09-02T03:13:32.019Z,22.57
2022-09-02T03:16:01.871Z,21.13
2022-09-02T03:18:29.823Z,22.67
2022-09-02T03:20:59.540Z,22.07
2022-09-02T03:23:28.778Z,20.73
2022-09-02T03:25:56.823Z,20.80
2022-09-02T03:28:30.390Z,20.43
2022-09-02T03:30:59.319Z,20.20
2022-09-02T03:33:28.259Z,18.53
2022-09-02T03:35:57.496Z,18.30
2022-09-02T03:38:28.095Z,17.70
2022-09-02T03:40:56.203Z,16.07
2022-09-02T03:43:25.452Z,15.07
2022-09-02T03:45:53.426Z,14.27
2022-09-02T03:48:22.968Z,13.63
2022-09-02T03:50:50.879Z,12.97
2022-09-02T03:53:20.656Z,13.33
2022-09-02T03:55:55.908Z,13.33
2022-09-02T03:58:26.595Z,12.03
2022-09-02T04:00:56.443Z,10.57
2022-09-02T04:03:25.971Z,10.43
2022-09-02T04:05:55.875Z,10.00
2022-09-02T04:08:26.810Z,9.17
2022-09-02T04:10:58.597Z,8.23
2022-09-02T04:13:27.332Z,7.33
2022-09-02T04:15:58.589Z,6.63
2022-09-02T04:18:31.610Z,6.63
2022-09-02T04:21:01.316Z,6.00
2022-09-02T04:23:29.679Z,5.83
2022-09-02T04:25:59.564Z,5.73
2022-09-02T04:28:27.463Z,5.40
2022-09-02T04:30:55.539Z,5.57
2022-09-02T04:33:23.644Z,5.67
2022-09-02T04:35:52.413Z,5.03
2022-09-02T04:38:21.684Z,4.67
2022-09-02T04:40:49.837Z,4.33
2022-09-02T04:43:21.693Z,4.40
2022-09-02T04:45:50.057Z,4.23
2022-09-02T04:48:20.232Z,4.10
2022-09-02T04:50:49.986Z,3.87
2022-09-02T04:53:18.677Z,3.73
2022-09-02T04:55:46.625Z,3.50
2022-09-02T04:58:16.558Z,4.03
2022-09-02T05:00:46.534Z,3.33
2022-09-02T05:03:16.661Z,3.30
2022-09-02T05:05:48.115Z,3.50
2022-09-02T05:08:22.338Z,3.23
2022-09-02T05:10:53.205Z,2.93
2022-09-02T05:13:22.806Z,3.10
2022-09-02T05:15:52.817Z,3.00
2022-09-02T05:18:20.967Z,3.30
2022-09-02T05:20:49.002Z,2.80
2022-09-02T05:23:19.315Z,2.87
2022-09-02T05:25:47.958Z,3.13
2022-09-02T05:28:17.245Z,2.50
2022-09-02T05:30:45.444Z,2.53
2022-09-02T05:33:14.835Z,2.70
2022-09-02T05:35:45.919Z,2.70
2022-09-02T05:38:17.237Z,2.43
2022-09-02T05:40:46.740Z,2.70
2022-09-02T05:43:14.877Z,2.43
2022-09-02T05:45:43.489Z,2.50
2022-09-02T05:48:25.919Z,2.70
2022-09-02T05:50:57.730Z,2.53
2022-09-02T05:53:27.709Z,2.60
2022-09-02T05:55:55.942Z,2.57
2022-09-02T05:58:24.797Z,2.70
2022-09-02T06:00:54.269Z,2.30
2022-09-02T06:03:23.132Z,2.50
2022-09-02T06:05:58.985Z,2.17
2022-09-02T06:08:29.927Z,2.47
2022-09-02T06:10:57.978Z,2.63
2022-09-02T06:13:28.114Z,2.40
2022-09-02T06:15:57.768Z,2.50
2022-09-02T06:18:28.730Z,2.10
2022-09-02T06:20:59.603Z,2.50
2022-09-02T06:23:35.730Z,2.70
2022-09-02T06:26:04.433Z,3.10
2022-09-02T06:28:32.477Z,2.60
2022-09-02T06:31:01.050Z,2.43
2022-09-02T06:33:28.977Z,2.40
2022-09-02T06:36:19.209Z,2.70
2022-09-02T06:38:49.779Z,2.60
2022-09-02T06:41:23.208Z,2.43
2022-09-02T06:43:53.210Z,2.73
2022-09-02T06:46:25.542Z,2.50
2022-09-02T06:48:56.844Z,2.67
2022-09-02T06:51:29.296Z,2.40
2022-09-02T06:53:58.795Z,2.50
2022-09-02T06:56:32.095Z,2.53
2022-09-02T06:59:00.086Z,2.87
2022-09-02T07:01:43.212Z,2.50
2022-09-02T07:04:30.255Z,2.50
2022-09-02T07:06:59.539Z,2.60
2022-09-02T07:09:31.938Z,2.70
2022-09-02T07:12:07.213Z,2.40
2022-09-02T07:14:42.131Z,2.63
2022-09-02T07:17:17.523Z,2.70
2022-09-02T07:19:48.574Z,2.20
2022-09-02T07:22:18.884Z,2.43
2022-09-02T07:24:48.020Z,2.57
2022-09-02T07:27:16.430Z,2.83
2022-09-02T07:29:47.789Z,2.70
2022-09-02T07:32:16.224Z,2.47
2022-09-02T07:34:44.761Z,2.33
2022-09-02T07:37:15.099Z,2.50
2022-09-02T07:39:45.559Z,2.83
2022-09-02T07:42:16.143Z,2.67
2022-09-02T07:44:46.039Z,2.30
2022-09-02T07:47:14.529Z,2.60
2022-09-02T07:52:34.263Z,2.60
2022-09-02T07:55:03.577Z,2.50
2022-09-02T07:57:32.335Z,2.80
2022-09-02T08:00:00.779Z,2.80
2022-09-02T08:02:28.815Z,2.30
2022-09-02T08:04:56.874Z,2.50
2022-09-02T08:07:25.092Z,2.53
2022-09-02T08:09:53.219Z,2.67
2022-09-02T08:12:22.830Z,2.60
2022-09-02T08:14:50.838Z,3.17
2022-09-02T08:17:18.780Z,2.70
2022-09-02T08:19:46.919Z,2.70
2022-09-02T08:22:15.290Z,2.70
2022-09-02T08:24:43.160Z,2.93
2022-09-02T08:27:11.024Z,2.90
2022-09-02T08:29:40.202Z,2.67
2022-09-02T08:32:08.235Z,2.90
2022-09-02T08:34:36.473Z,2.70
2022-09-02T08:37:04.436Z,2.57
2022-09-02T08:39:32.482Z,2.77
2022-09-02T08:42:08.187Z,2.70
2022-09-02T08:44:41.309Z,2.47
2022-09-02T08:47:16.236Z,2.73
2022-09-02T08:49:48.393Z,3.00
2022-09-02T08:52:23.668Z,3.17
2022-09-02T08:54:55.467Z,2.90
2022-09-02T08:57:26.384Z,2.80
2022-09-02T08:59:58.901Z,2.73
2022-09-02T09:02:36.503Z,2.80
2022-09-02T09:05:24.244Z,2.90
2022-09-02T09:08:06.092Z,2.83
2022-09-02T09:10:43.716Z,2.77
2022-09-02T09:13:41.861Z,3.10
2022-09-02T09:16:19.583Z,2.80
2022-09-02T09:18:56.110Z,2.77
2022-09-02T09:23:59.184Z,2.70
2022-09-02T09:26:30.743Z,2.53
2022-09-02T09:28:59.704Z,2.60
2022-09-02T09:31:32.290Z,2.70
2022-09-02T09:34:01.873Z,2.90
2022-09-02T09:36:46.155Z,3.00
2022-09-02T09:39:24.343Z,2.60
2022-09-02T09:41:53.335Z,2.37
2022-09-02T09:44:37.351Z,2.50
2022-09-02T09:47:09.373Z,2.60
2022-09-02T09:49:39.082Z,2.60
2022-09-02T09:52:07.092Z,2.17
2022-09-02T09:54:35.046Z,2.50
2022-09-02T09:57:18.062Z,2.40
2022-09-02T09:59:55.899Z,2.63
2022-09-02T10:02:27.658Z,2.17
2022-09-02T10:05:10.284Z,2.13
2022-09-02T10:07:40.347Z,2.33
2022-09-02T10:10:17.614Z,2.10
2022-09-02T10:12:46.905Z,2.27
2022-09-02T10:15:14.998Z,2.50
2022-09-02T10:17:51.844Z,2.07
2022-09-02T10:20:24.866Z,2.50
2022-09-02T10:23:18.380Z,2.10
2022-09-02T10:25:58.650Z,2.30
2022-09-02T10:28:42.852Z,2.33
2022-09-02T10:31:18.971Z,2.00
2022-09-02T10:33:58.152Z,2.27
2022-09-02T10:36:34.829Z,2.00
2022-09-02T10:39:11.633Z,2.03
2022-09-02T10:44:32.611Z,2.00
2022-09-02T10:47:03.651Z,1.90
2022-09-02T10:49:53.551Z,2.40
2022-09-02T10:52:43.403Z,1.80
2022-09-02T10:55:21.271Z,2.00
2022-09-02T10:57:55.153Z,1.87
2022-09-02T11:00:24.420Z,2.17
2022-09-02T11:02:56.907Z,2.30
2022-09-02T11:05:29.229Z,2.20
2022-09-02T11:08:04.813Z,2.00
2022-09-02T11:10:36.443Z,1.80
2022-09-02T11:13:09.110Z,2.00
2022-09-02T11:15:46.918Z,2.03
2022-09-02T11:18:21.594Z,1.70
2022-09-02T11:20:55.653Z,1.60
2022-09-02T11:23:33.677Z,2.00
2022-09-02T11:26:05.868Z,2.00
2022-09-02T11:28:40.415Z,1.93
2022-09-02T11:31:17.204Z,1.87
2022-09-02T11:33:55.241Z,1.80
2022-09-02T11:36:26.242Z,1.90
2022-09-02T11:39:03.715Z,2.00
2022-09-02T11:41:50.770Z,2.03
2022-09-02T11:44:41.549Z,2.03
2022-09-02T11:47:45.693Z,2.00
2022-09-02T11:50:30.719Z,1.57
2022-09-02T11:53:19.052Z,1.77
2022-09-02T11:55:51.735Z,1.60
2022-09-02T11:58:37.629Z,1.50
2022-09-02T12:01:17.915Z,1.80
2022-09-02T12:04:48.571Z,1.80
2022-09-02T12:07:26.623Z,1.90
2022-09-02T12:10:02.634Z,1.53
2022-09-02T12:13:08.177Z,1.70
2022-09-02T12:15:38.365Z,1.80
2022-09-02T12:18:27.784Z,1.70
2022-09-02T12:21:07.632Z,1.60
2022-09-02T12:24:11.291Z,1.80
2022-09-02T12:27:07.882Z,1.40
2022-09-02T12:29:36.959Z,1.43
2022-09-02T12:32:09.556Z,1.83
2022-09-02T12:35:07.860Z,1.70
2022-09-02T12:37:56.848Z,1.83
2022-09-02T12:40:37.234Z,1.73
2022-09-02T12:43:26.128Z,1.70
2022-09-02T12:45:57.409Z,1.70
2022-09-02T12:48:38.428Z,1.90
2022-09-02T12:51:07.132Z,1.70
2022-09-02T12:53:38.926Z,1.73
2022-09-02T12:56:19.146Z,1.77
2022-09-02T12:58:50.212Z,1.60
2022-09-02T13:01:24.402Z,1.70
2022-09-02T13:04:27.726Z,1.63
2022-09-02T13:07:32.173Z,1.80
2022-09-02T13:10:24.543Z,1.60
2022-09-02T13:13:19.419Z,1.90
2022-09-02T13:16:04.396Z,1.77
2022-09-02T13:19:02.078Z,1.80
2022-09-02T13:22:03.770Z,1.80
2022-09-02T13:25:01.521Z,1.70
2022-09-02T13:27:56.708Z,1.63
2022-09-02T13:30:50.659Z,1.57
2022-09-02T13:33:20.607Z,1.87
2022-09-02T13:35:55.703Z,1.77
2022-09-02T13:38:25.326Z,1.60
2022-09-02T13:40:53.550Z,1.70
2022-09-02T13:43:23.966Z,1.50
2022-09-02T13:45:53.458Z,1.80
2022-09-02T13:48:26.006Z,1.80
2022-09-02T13:50:55.752Z,2.03
2022-09-02T13:53:59.002Z,1.80
2022-09-02T13:56:17.487Z,1.80
2022-09-02T13:58:48.681Z,1.63
2022-09-02T14:01:23.759Z,1.70
2022-09-02T14:03:54.724Z,1.50
2022-09-02T14:06:25.265Z,1.47
2022-09-02T14:08:55.577Z,1.80
2022-09-02T14:11:23.872Z,1.70
2022-09-02T14:13:52.810Z,1.47
2022-09-02T14:16:29.242Z,2.27
2022-09-02T14:19:14.512Z,1.90
2022-09-02T14:21:47.891Z,1.60
2022-09-02T14:24:17.595Z,1.60
2022-09-02T14:26:48.145Z,1.80
2022-09-02T14:29:18.174Z,1.73
2022-09-02T14:31:46.792Z,1.80
2022-09-02T14:34:35.787Z,1.80
2022-09-02T14:37:20.483Z,1.90
2022-09-02T14:40:12.120Z,1.50
2022-09-02T14:42:52.706Z,1.70
2022-09-02T14:45:30.588Z,1.60
2022-09-02T14:48:01.626Z,1.80
2022-09-02T14:50:36.530Z,1.80
2022-09-02T14:53:07.421Z,1.70
2022-09-02T14:55:47.450Z,1.60
2022-09-02T14:58:15.827Z,1.70
2022-09-02T15:00:46.719Z,1.87
2022-09-02T15:03:16.096Z,1.63
2022-09-02T15:05:46.058Z,1.70
2022-09-02T15:08:14.916Z,1.57
2022-09-02T15:10:43.844Z,1.77
2022-09-02T15:13:14.742Z,1.57
2022-09-02T15:15:42.903Z,1.60
2022-09-02T15:18:11.505Z,1.67
2022-09-02T15:20:39.391Z,1.80
2022-09-02T15:23:08.791Z,1.70
2022-09-02T15:25:37.592Z,1.90
2022-09-02T15:28:06.170Z,1.70
2022-09-02T15:30:36.131Z,1.70
2022-09-02T15:33:05.211Z,1.73
2022-09-02T15:35:34.326Z,2.00
2022-09-02T15:38:02.952Z,1.43
2022-09-02T15:40:32.892Z,1.73
2022-09-02T15:43:01.154Z,1.80
2022-09-02T15:45:29.263Z,1.60
2022-09-02T15:47:59.662Z,1.77
2022-09-02T15:50:32.020Z,1.70
2022-09-02T15:53:03.134Z,1.90
2022-09-02T15:55:35.171Z,1.80
2022-09-02T15:58:03.186Z,1.77
2022-09-02T16:00:31.962Z,1.60
2022-09-02T16:03:01.308Z,1.80
2022-09-02T16:05:30.583Z,1.57
2022-09-02T16:07:58.476Z,1.63
2022-09-02T16:10:26.410Z,1.63
2022-09-02T16:12:56.032Z,1.70
2022-09-02T16:15:23.863Z,1.63
2022-09-02T16:17:52.706Z,1.70
2022-09-02T16:20:21.635Z,1.70
2022-09-02T16:22:49.640Z,1.70
2022-09-02T16:25:17.679Z,1.70
2022-09-02T16:27:55.690Z,1.90
2022-09-02T16:30:25.645Z,1.63
2022-09-02T16:32:54.563Z,1.60
2022-09-02T16:35:22.469Z,1.60
2022-09-02T16:37:50.847Z,1.50
2022-09-02T16:40:21.533Z,1.77
2022-09-02T16:42:50.155Z,1.60
2022-09-02T16:45:18.053Z,1.70
2022-09-02T16:47:47.265Z,1.70
2022-09-02T16:50:15.486Z,2.13
2022-09-02T16:52:43.739Z,1.63
2022-09-02T16:55:17.661Z,1.70
2022-09-02T16:57:45.601Z,1.60
2022-09-02T17:00:14.891Z,1.67
2022-09-02T17:02:42.839Z,1.70
2022-09-02T17:05:14.312Z,1.60
2022-09-02T17:07:42.255Z,1.70
2022-09-02T17:10:10.999Z,1.50
2022-09-02T17:12:42.826Z,1.60
2022-09-02T17:15:11.538Z,1.50
2022-09-02T17:17:40.020Z,1.70
2022-09-02T17:20:08.768Z,1.70
2022-09-02T17:22:38.016Z,1.60
2022-09-02T17:25:06.673Z,1.80
2022-09-02T17:27:36.230Z,1.33
2022-09-02T17:30:05.382Z,1.60
2022-09-02T17:32:33.353Z,1.73
2022-09-02T17:35:02.968Z,1.50
2022-09-02T17:37:31.013Z,1.50
2022-09-02T17:40:00.272Z,2.00
2022-09-02T17:42:27.338Z,1.83
2022-09-02T17:44:55.195Z,1.70
2022-09-02T17:47:24.133Z,1.70
2022-09-02T17:49:52.427Z,1.70
2022-09-02T17:52:21.996Z,1.70
2022-09-02T17:54:51.614Z,1.50
2022-09-02T17:57:31.150Z,1.73
2022-09-02T18:00:10.747Z,1.70
2022-09-02T18:03:14.024Z,1.53
2022-09-02T18:05:55.502Z,1.73
2022-09-02T18:08:34.797Z,1.60
2022-09-02T18:11:05.188Z,1.60
2022-09-02T18:13:40.506Z,1.80
2022-09-02T18:16:33.320Z,1.57
2022-09-02T18:19:13.084Z,2.00
2022-09-02T18:21:53.827Z,1.63
2022-09-02T18:24:32.743Z,1.83
2022-09-02T18:27:08.891Z,1.70
2022-09-02T18:29:49.365Z,1.70
2022-09-02T18:32:28.041Z,1.93
2022-09-02T18:35:06.078Z,1.80
2022-09-02T18:37:45.488Z,1.73
2022-09-02T18:40:24.634Z,1.80
2022-09-02T18:43:02.539Z,1.80
2022-09-02T18:45:35.096Z,1.50
2022-09-02T18:48:08.646Z,1.90
2022-09-02T18:50:51.354Z,1.90
2022-09-02T18:53:23.909Z,1.90
2022-09-02T18:55:53.949Z,2.00
2022-09-02T18:58:34.154Z,2.20
2022-09-02T19:01:10.144Z,2.20
2022-09-02T19:03:38.791Z,2.17
2022-09-02T19:06:10.987Z,1.93
2022-09-02T19:08:38.394Z,2.00
2022-09-02T19:11:09.379Z,2.13
2022-09-02T19:13:46.891Z,2.00
2022-09-02T19:16:19.285Z,2.10
2022-09-02T19:18:47.638Z,2.00
2022-09-02T19:21:18.154Z,2.03
2022-09-02T19:23:47.701Z,1.90
2022-09-02T19:26:15.883Z,1.80
2022-09-02T19:28:46.215Z,1.80
2022-09-02T19:31:21.058Z,1.90
2022-09-02T19:33:54.842Z,2.20
2022-09-02T19:36:26.759Z,1.90
2022-09-02T19:38:59.874Z,1.87
2022-09-02T19:41:27.970Z,1.90
2022-09-02T19:43:56.353Z,1.80
2022-09-02T19:47:11.773Z,1.70
2022-09-02T19:49:13.412Z,1.80
2022-09-02T19:51:42.383Z,1.93
2022-09-02T19:54:12.373Z,1.70
2022-09-02T19:56:40.880Z,1.70
2022-09-02T19:59:09.139Z,1.83
2022-09-02T20:01:38.618Z,1.77
2022-09-02T20:04:08.196Z,1.77
2022-09-02T20:06:36.109Z,1.93
2022-09-02T20:09:04.755Z,2.00
2022-09-02T20:11:32.654Z,1.63
2022-09-02T20:14:00.682Z,2.00
2022-09-02T20:16:29.937Z,1.87
2022-09-02T20:18:59.397Z,1.80
2022-09-02T20:21:29.337Z,2.03
2022-09-02T20:24:00.343Z,1.90
2022-09-02T20:26:38.777Z,2.07
2022-09-02T20:29:22.420Z,1.90
2022-09-02T20:32:02.861Z,1.87
2022-09-02T20:34:40.684Z,1.97
2022-09-02T20:37:19.430Z,2.00
2022-09-02T20:40:12.684Z,1.70
2022-09-02T20:43:11.147Z,1.97
2022-09-02T20:45:41.204Z,1.80
2022-09-02T20:48:27.388Z,1.90
2022-09-02T20:51:02.599Z,2.47
2022-09-02T20:53:44.932Z,2.10
2022-09-02T20:56:19.766Z,2.20
2022-09-02T20:58:56.107Z,1.87
2022-09-02T21:01:27.993Z,2.00
2022-09-02T21:04:02.686Z,1.93
2022-09-02T21:06:35.154Z,1.90
2022-09-02T21:09:08.980Z,1.97
2022-09-02T21:11:45.898Z,2.03
2022-09-02T21:14:17.123Z,1.90
2022-09-02T21:16:50.154Z,1.90
2022-09-02T21:19:26.964Z,2.10
2022-09-02T21:22:01.830Z,2.00
2022-09-02T21:24:36.928Z,2.20
2022-09-02T21:27:10.638Z,2.10
2022-09-02T21:29:45.066Z,1.73
2022-09-02T21:32:20.403Z,2.00
2022-09-02T21:34:54.854Z,2.10
2022-09-02T21:37:26.223Z,2.07
2022-09-02T21:40:01.600Z,2.00
2022-09-02T21:42:40.684Z,1.97
2022-09-02T21:45:25.571Z,2.13
2022-09-02T21:48:10.213Z,2.10
2022-09-02T21:50:45.356Z,1.90
2022-09-02T21:53:27.195Z,1.90
2022-09-02T21:56:01.431Z,2.13
2022-09-02T21:58:50.327Z,2.00
2022-09-02T22:01:31.761Z,2.17
2022-09-02T22:04:05.220Z,2.23
2022-09-02T22:06:40.212Z,2.00
2022-09-02T22:09:13.495Z,2.10
2022-09-02T22:11:46.551Z,2.00
2022-09-02T22:14:19.200Z,1.90
2022-09-02T22:16:58.879Z,2.20
2022-09-02T22:19:30.349Z,2.30
2022-09-02T22:22:05.604Z,2.30
2022-09-02T22:24:37.314Z,2.20
2022-09-02T22:27:11.431Z,2.20
2022-09-02T22:29:45.452Z,2.20
2022-09-02T22:32:17.227Z,1.97
2022-09-02T22:34:53.481Z,2.07
2022-09-02T22:37:25.858Z,2.03
2022-09-02T22:39:57.054Z,2.30
2022-09-02T22:42:33.650Z,2.10
2022-09-02T22:45:25.533Z,2.03
2022-09-02T22:48:18.448Z,2.00
2022-09-02T22:51:19.223Z,2.00
2022-09-02T22:53:50.384Z,2.20
2022-09-02T22:56:28.071Z,2.37
2022-09-02T22:59:18.450Z,2.47
2022-09-02T23:01:54.818Z,2.40
2022-09-02T23:04:40.065Z,2.60
2022-09-02T23:07:09.512Z,2.30
2022-09-02T23:09:37.644Z,2.87
2022-09-02T23:12:27.653Z,2.63
2022-09-02T23:15:10.703Z,2.37
2022-09-02T23:17:48.265Z,2.40
2022-09-02T23:20:23.360Z,2.40
2022-09-02T23:23:08.302Z,2.47
2022-09-02T23:26:09.886Z,2.40
2022-09-02T23:29:11.389Z,2.17
2022-09-02T23:31:54.588Z,2.23
2022-09-02T23:34:34.283Z,2.27
2022-09-02T23:37:10.427Z,2.30
2022-09-02T23:39:49.126Z,2.30
2022-09-02T23:42:17.681Z,2.60
2022-09-02T23:44:47.939Z,2.30
2022-09-02T23:47:37.443Z,2.20
2022-09-02T23:50:17.508Z,2.30
2022-09-02T23:52:56.482Z,2.40
2022-09-02T23:55:38.903Z,2.53
2022-09-02T23:58:18.513Z,2.47
